Impacts METAR Board
IDs:

KTPA - Tampa Intl Arpt, FL, US

Updated at: 1300 UTC 07 Jul 2020
Potential Impact None Slight Moderate High
Time 07/01Z 07/02Z 07/03Z 07/04Z 07/05Z 07/06Z 07/07Z 07/08Z 07/09Z 07/10Z 07/11Z 07/12Z 07/13Z
Temp82 77 78 79 80 79 79 79 79 79 79 81 83
Dewpt72 71 71 73 74 74 74 74 74 74 74 74 76
Altim30.05 30.07 30.08 30.08 30.07 30.05 30.04 30.03 30.04 30.04 30.05 30.07 30.08
VIS10 6 10 10 10 10 10 10 10 10 10 6 10
CIG190 18 170 240 -- -- -- -- -- -- -- 24 --
CoverOVCOVCOVCOVCSCTFEWFEWFEWCLRFEWFEWBKNSCT
FltCatVFRMVFRVFRVFRVFRVFRVFRVFRVFRVFRVFRMVFRVFR
WX--RA-------------------RA BR--
WDir140160100000140150150150150190180
WSpd7 8 3 0 0 0 5 4 4 4 7 8 5
WGst-- -- -- -- -- -- -- -- -- -- -- -- --
Raw hourly METARs
KTPA 070053Z 14007KT 10SM SCT034CB BKN190 OVC250 28/22 A3005 RMK AO2 SLP173 CB SE-SW AND NW MOV NE TCU DSNT ALQDS T02780222
KTPA 070153Z 16008KT 6SM R01L/6000VP6000FT RA BKN018 BKN026 OVC047 25/22 A3007 RMK AO2 RAB23 SLP182 P0014 T02500217
KTPA 070253Z 10003KT 10SM FEW020 SCT033 BKN170 OVC250 26/22 A3008 RMK AO2 RAE04 SLP185 CB DSNT W-NW P0001 60015 T02560217 52014
KTPA 070353Z 00000KT 10SM OVC240 26/23 A3008 RMK AO2 SLP185 T02610228
KTPA 070453Z 00000KT 10SM SCT230 27/23 A3007 RMK AO2 SLP182 T02670233 403330250
KTPA 070553Z 00000KT 10SM FEW050 26/23 A3005 RMK AO2 SLP175 60015 T02610233 10300 20250 58010
KTPA 070653Z 14005KT 10SM FEW050 26/23 A3004 RMK AO2 SLP170 T02610233
KTPA 070753Z 15004KT 10SM FEW024 26/23 A3003 RMK AO2 SLP167 T02610233
KTPA 070853Z 15004KT 10SM CLR 26/23 A3004 RMK AO2 SLP170 T02610233 55005
KTPA 070953Z 15004KT 10SM FEW080 26/23 A3004 RMK AO2 SLP173 T02610233
KTPA 071053Z COR 15007KT 10SM FEW024TCU 26/23 A3005 RMK AO2 SLP175 TCU S-W T02610233
KTPA 071153Z 19008KT 6SM -RA BR BKN024TCU 27/23 A3007 RMK AO2 RAB50 SLP180 TCU ALQDS P0000 60000 70015 T02720233 10272 20261 53010 $
KTPA 071253Z 18005KT 10SM SCT025TCU 28/24 A3008 RMK AO2 RAE23 SLP183 CB DSNT S TCU SW-N P0001 T02830244



Page loaded:  13:51 UTC  |   06:51 AM Pacific  |   07:51 AM Mountain  |   08:51 AM Central  |   09:51 AM Eastern

 

ADVISORIES

FORECASTS

FORECASTS

OBSERVATIONS

USER TOOLS

ABOUT US